Time;durP1;ratioP1;P1;durP2;ratioP2;P2;SDS_P1;SDS_P2;PMS_P1;PMS_P2;Temp;Humidity;BMP_temperature;BMP_pressure;BME280_temperature;BME280_humidity;BME280_pressure;Samples;Min_cycle;Max_cycle;Signal;HPM_P1;HPM_P2
2022/05/25 00:02:01;;;;;;;2.25;1.98;;;;;;;15.45;nan;98220.63;4996902;28;20034;-61
2022/05/25 00:04:27;;;;;;;2.25;2.15;;;;;;;15.39;nan;98222.66;4991207;28;20026;-61
2022/05/25 00:06:53;;;;;;;2.05;1.95;;;;;;;15.35;nan;98211.66;4995403;28;20046;-61
2022/05/25 00:09:19;;;;;;;2.15;1.95;;;;;;;15.39;nan;98212.34;4999044;28;20038;-61
2022/05/25 00:11:45;;;;;;;3.38;3.03;;;;;;;15.41;nan;98216.50;4994692;28;20101;-61
2022/05/25 00:14:11;;;;;;;2.33;2.00;;;;;;;15.42;nan;98222.53;4990983;28;20472;-61
2022/05/25 00:16:37;;;;;;;2.35;2.20;;;;;;;15.38;nan;98221.84;4995584;28;20117;-61
2022/05/25 00:21:46;;;;;;;3.47;2.28;;;;;;;15.41;nan;98218.25;4993360;28;20503;-61
2022/05/25 00:24:12;;;;;;;2.22;1.98;;;;;;;15.44;nan;98226.75;4992309;28;20040;-61
2022/05/25 00:26:37;;;;;;;2.42;2.20;;;;;;;15.47;nan;98229.16;4997597;28;20132;-60
2022/05/25 00:29:04;;;;;;;2.28;2.15;;;;;;;15.38;nan;98210.66;4998750;28;20034;-60
2022/05/25 00:31:30;;;;;;;2.08;1.88;;;;;;;15.41;nan;98219.09;4993066;28;20034;-63
2022/05/25 00:33:57;;;;;;;3.92;2.13;;;;;;;15.42;nan;98213.03;4990693;28;20027;-62
2022/05/25 00:36:23;;;;;;;2.30;2.10;;;;;;;15.34;nan;98219.44;4996043;28;20479;-62
2022/05/25 00:38:48;;;;;;;4.93;2.00;;;;;;;15.31;nan;98217.84;5005976;28;20030;-62
2022/05/25 00:41:14;;;;;;;5.00;2.17;;;;;;;15.34;nan;98215.13;4999699;28;20065;-62
2022/05/25 00:43:40;;;;;;;6.40;2.40;;;;;;;15.32;nan;98214.34;4992084;28;20026;-62
2022/05/25 00:46:09;;;;;;;2.60;2.40;;;;;;;15.34;nan;98222.88;4997515;28;20472;-62
2022/05/25 00:48:43;;;;;;;3.50;3.15;;;;;;;15.35;nan;98216.81;4995933;28;20179;-62
2022/05/25 00:51:12;;;;;;;3.30;2.83;;;;;;;15.26;nan;98219.78;4990811;28;20142;-61
2022/05/25 00:53:43;;;;;;;3.50;2.42;;;;;;;15.28;nan;98217.13;4994164;28;20065;-61
2022/05/25 00:56:12;;;;;;;5.00;3.33;;;;;;;15.32;nan;98218.69;4998211;28;20101;-61
2022/05/25 00:58:39;;;;;;;2.25;2.15;;;;;;;15.29;nan;98223.97;4996122;28;20038;-62
2022/05/25 01:01:05;;;;;;;1.90;1.80;;;;;;;15.32;nan;98222.09;4990086;28;20050;-62
2022/05/25 01:03:30;;;;;;;2.40;1.73;;;;;;;15.36;nan;98226.22;4995805;28;20080;-60
2022/05/25 01:06:17;;;;;;;2.08;1.73;;;;;;;15.33;nan;98230.69;4997205;28;20033;-61
2022/05/25 01:08:56;;;;;;;2.33;1.80;;;;;;;15.30;nan;98234.25;4992864;28;20049;-62
2022/05/25 01:11:24;;;;;;;5.10;2.17;;;;;;;15.32;nan;98240.16;4991055;28;20030;-62
2022/05/25 01:13:55;;;;;;;1.83;1.73;;;;;;;15.29;nan;98240.31;4997387;28;20038;-62
2022/05/25 01:16:58;;;;;;;2.25;1.80;;;;;;;15.34;nan;98237.53;4996584;28;20084;-62
2022/05/25 01:19:44;;;;;;;2.70;1.88;;;;;;;15.21;nan;98236.38;4989852;28;20103;-63
2022/05/25 01:22:39;;;;;;;2.10;2.00;;;;;;;15.23;nan;98240.59;4993261;28;20423;-62
2022/05/25 01:25:23;;;;;;;1.80;1.70;;;;;;;15.25;nan;98243.94;4997016;28;20144;-62
2022/05/25 01:27:50;;;;;;;2.17;2.08;;;;;;;15.18;nan;98241.69;4991809;28;20162;-62
2022/05/25 01:30:20;;;;;;;4.00;2.22;;;;;;;15.17;nan;98250.34;4991768;28;20065;-62
2022/05/25 01:33:08;;;;;;;2.83;2.70;;;;;;;15.14;nan;98256.50;4996773;28;20118;-62
2022/05/25 01:35:58;;;;;;;6.28;2.40;;;;;;;15.23;nan;98260.44;5011383;28;20042;-63
2022/05/25 01:38:40;;;;;;;2.08;1.98;;;;;;;15.25;nan;98248.25;4988961;28;20042;-62
2022/05/25 01:41:29;;;;;;;3.05;2.20;;;;;;;15.13;nan;98222.97;4993616;28;20034;-62
2022/05/25 01:43:58;;;;;;;2.70;1.88;;;;;;;15.17;nan;98227.94;4997041;28;20057;-62
2022/05/25 01:46:31;;;;;;;1.73;1.63;;;;;;;15.11;nan;98214.47;4991721;28;20405;-62
2022/05/25 01:49:02;;;;;;;3.28;2.47;;;;;;;15.15;nan;98222.00;4991484;28;20162;-62
2022/05/25 01:51:39;;;;;;;4.30;2.25;;;;;;;15.26;nan;98219.78;4997093;28;20072;-62
2022/05/25 01:54:08;;;;;;;3.03;2.20;;;;;;;15.22;nan;98215.69;4996845;28;20081;-60
2022/05/25 01:56:39;;;;;;;2.20;2.10;;;;;;;15.20;nan;98209.72;4989536;28;20037;-62
2022/05/25 01:59:09;;;;;;;2.30;2.20;;;;;;;15.23;nan;98206.19;4991404;28;20099;-62
2022/05/25 02:01:35;;;;;;;2.08;1.98;;;;;;;15.24;nan;98206.09;4995816;28;20118;-63
2022/05/25 02:06:51;;;;;;;2.60;2.40;;;;;;;15.21;nan;98187.31;4990835;28;20154;-61
2022/05/25 02:09:40;;;;;;;2.83;2.28;;;;;;;15.17;nan;98181.47;4992841;28;20596;-61
2022/05/25 02:12:36;;;;;;;2.90;1.90;;;;;;;15.18;nan;98190.06;4997024;28;20034;-60
2022/05/25 02:15:11;;;;;;;2.28;1.90;;;;;;;15.11;nan;98197.22;4990127;28;20132;-61
2022/05/25 02:18:05;;;;;;;2.00;1.90;;;;;;;15.17;nan;98199.53;4990916;28;20637;-61
2022/05/25 02:20:56;;;;;;;2.90;2.10;;;;;;;15.13;nan;98208.34;4996847;28;20077;-61
2022/05/25 02:23:46;;;;;;;2.17;1.80;;;;;;;15.12;nan;98198.06;4992147;28;20383;-62
2022/05/25 02:26:17;;;;;;;1.83;1.73;;;;;;;15.15;nan;98200.53;4988807;28;20115;-61
2022/05/25 02:28:47;;;;;;;2.53;2.20;;;;;;;15.08;nan;98199.94;4993934;28;20034;-60
2022/05/25 02:31:18;;;;;;;1.83;1.73;;;;;;;15.10;nan;98205.91;4995949;28;20042;-62
2022/05/25 02:33:48;;;;;;;3.50;1.80;;;;;;;15.15;nan;98205.69;5005224;28;20067;-61
2022/05/25 02:36:15;;;;;;;2.55;1.77;;;;;;;15.09;nan;98209.38;4991444;28;20045;-61
2022/05/25 02:38:43;;;;;;;1.75;1.65;;;;;;;15.14;nan;98214.34;4994425;28;20040;-61
2022/05/25 02:41:11;;;;;;;2.05;1.95;;;;;;;15.13;nan;98207.50;4995885;28;20112;-61
2022/05/25 02:43:38;;;;;;;1.23;1.13;;;;;;;15.23;nan;98225.09;4990329;28;20511;-62
2022/05/25 02:46:06;;;;;;;2.15;1.48;;;;;;;15.21;nan;98226.06;4991377;28;20065;-62
2022/05/25 02:48:35;;;;;;;1.60;1.50;;;;;;;15.15;nan;98221.19;4997547;28;20025;-64
2022/05/25 02:51:01;;;;;;;1.80;1.70;;;;;;;15.26;nan;98230.13;4994880;28;20034;-62
2022/05/25 02:53:26;;;;;;;1.83;1.73;;;;;;;15.19;nan;98220.97;4989108;28;20030;-61
2022/05/25 02:55:52;;;;;;;1.60;1.50;;;;;;;15.22;nan;98230.31;4992372;28;20026;-61
2022/05/25 02:58:17;;;;;;;1.50;1.40;;;;;;;15.16;nan;98233.16;4996467;28;20030;-61
2022/05/25 03:00:44;;;;;;;1.77;1.67;;;;;;;15.25;nan;98250.84;4991866;28;20120;-60
2022/05/25 03:03:12;;;;;;;2.28;1.30;;;;;;;15.16;nan;98254.66;4989262;28;20025;-61
2022/05/25 03:05:39;;;;;;;1.30;1.25;;;;;;;15.26;nan;98245.63;4993280;28;20160;-61
2022/05/25 03:08:05;;;;;;;1.60;1.60;;;;;;;15.29;nan;98247.22;4996905;28;20042;-61
2022/05/25 03:10:31;;;;;;;1.48;1.38;;;;;;;15.28;nan;98250.69;4992493;28;20089;-61
2022/05/25 03:12:57;;;;;;;2.10;1.30;;;;;;;15.35;nan;98255.56;4989208;28;21030;-61
2022/05/25 03:15:22;;;;;;;1.50;1.50;;;;;;;15.29;nan;98268.72;4995047;28;20027;-61
2022/05/25 03:17:48;;;;;;;1.35;1.10;;;;;;;15.26;nan;98265.44;4996664;28;20585;-61
2022/05/25 03:20:13;;;;;;;1.60;1.48;;;;;;;15.33;nan;98278.03;4990611;28;20030;-62
2022/05/25 03:22:44;;;;;;;3.55;1.85;;;;;;;15.32;nan;98285.84;4987841;28;20397;-61
2022/05/25 03:25:13;;;;;;;1.60;1.20;;;;;;;15.24;nan;98269.81;4996069;28;20077;-61
2022/05/25 03:27:38;;;;;;;1.55;1.50;;;;;;;15.34;nan;98284.88;4994301;28;20173;-61
2022/05/25 03:30:07;;;;;;;1.73;1.30;;;;;;;15.21;nan;98283.72;4990202;28;20104;-61
2022/05/25 03:32:32;;;;;;;1.33;1.23;;;;;;;15.08;nan;98279.97;4988115;28;20121;-61
2022/05/25 03:34:59;;;;;;;1.45;1.35;;;;;;;15.03;nan;98269.00;4994901;28;20030;-61
2022/05/25 03:37:25;;;;;;;2.03;1.50;;;;;;;14.99;nan;98265.72;4995074;28;20057;-61
2022/05/25 03:39:50;;;;;;;3.78;2.05;;;;;;;14.96;nan;98260.69;4988749;28;20039;-61
2022/05/25 03:42:18;;;;;;;1.20;1.10;;;;;;;15.02;nan;98263.00;4992820;28;20469;-62
2022/05/25 03:44:43;;;;;;;1.58;1.58;;;;;;;15.03;nan;98269.84;4993819;28;20033;-62
2022/05/25 03:47:09;;;;;;;1.60;1.50;;;;;;;15.01;nan;98263.09;4993983;28;20212;-61
2022/05/25 03:49:34;;;;;;;1.40;1.30;;;;;;;15.01;nan;98269.09;4988663;28;20034;-61
2022/05/25 03:52:00;;;;;;;1.67;1.23;;;;;;;14.89;nan;98254.13;4995608;28;20041;-61
2022/05/25 03:54:26;;;;;;;1.10;1.10;;;;;;;14.89;nan;98253.28;4994746;28;20033;-61
2022/05/25 03:56:53;;;;;;;1.70;1.60;;;;;;;14.94;nan;98251.31;4993652;28;20034;-61
2022/05/25 03:59:19;;;;;;;1.40;1.40;;;;;;;14.95;nan;98237.53;4988165;28;20572;-61
2022/05/25 04:01:44;;;;;;;1.65;1.48;;;;;;;14.98;nan;98237.38;4991778;28;20042;-61
2022/05/25 04:04:10;;;;;;;3.17;2.22;;;;;;;14.91;nan;98187.78;4993680;28;20045;-61
2022/05/25 04:06:35;;;;;;;3.35;1.55;;;;;;;14.93;nan;98165.31;4991277;28;20142;-61
2022/05/25 04:09:02;;;;;;;4.57;1.55;;;;;;;14.82;nan;98162.34;4986876;28;20041;-61
2022/05/25 04:11:28;;;;;;;2.42;1.60;;;;;;;14.81;nan;98245.84;4993628;28;20038;-62
2022/05/25 04:13:54;;;;;;;1.65;1.55;;;;;;;14.94;nan;98272.81;4994917;28;20031;-61
2022/05/25 04:16:19;;;;;;;1.38;1.27;;;;;;;14.98;nan;98268.34;4990882;28;20057;-62
2022/05/25 04:18:45;;;;;;;1.60;1.50;;;;;;;15.02;nan;98273.31;4998476;28;20034;-61
2022/05/25 04:21:11;;;;;;;1.42;1.35;;;;;;;15.04;nan;98283.59;4999024;28;20030;-61
2022/05/25 04:23:38;;;;;;;3.42;1.48;;;;;;;14.97;nan;98277.88;4997876;28;20144;-61
2022/05/25 04:26:05;;;;;;;1.80;1.70;;;;;;;14.90;nan;98299.66;4992831;28;20117;-61
2022/05/25 04:28:30;;;;;;;1.85;1.50;;;;;;;14.79;nan;98293.28;4992265;28;20031;-61
2022/05/25 04:30:56;;;;;;;5.15;2.58;;;;;;;14.69;nan;98287.66;4997222;28;20495;-61
2022/05/25 04:33:21;;;;;;;2.85;2.03;;;;;;;14.61;nan;98295.72;4998566;28;20104;-61
2022/05/25 04:35:46;;;;;;;2.17;2.08;;;;;;;14.61;nan;98276.81;4992618;28;20750;-61
2022/05/25 04:38:14;;;;;;;2.88;1.77;;;;;;;14.49;nan;98260.09;4993339;28;20080;-61
2022/05/25 04:40:42;;;;;;;3.17;2.00;;;;;;;14.33;nan;98224.63;4997560;28;20142;-61
2022/05/25 04:43:12;;;;;;;2.58;2.38;;;;;;;14.45;nan;98245.63;4996336;28;20037;-61
2022/05/25 04:45:39;;;;;;;2.45;1.65;;;;;;;14.41;nan;98264.72;4992173;28;20045;-61
2022/05/25 04:48:05;;;;;;;2.78;1.75;;;;;;;14.46;nan;98286.00;4993710;28;20085;-61
2022/05/25 04:50:36;;;;;;;2.75;2.13;;;;;;;14.46;nan;98280.00;4997671;28;20438;-62
2022/05/25 04:53:03;;;;;;;2.80;2.58;;;;;;;14.47;nan;98298.00;4995051;28;20445;-62
2022/05/25 04:58:33;;;;;;;2.05;1.30;;;;;;;14.46;nan;98309.22;4994751;28;20045;-63
2022/05/25 05:01:00;;;;;;;3.45;1.80;;;;;;;14.34;nan;98289.03;4997510;28;20149;-61
2022/05/25 05:03:26;;;;;;;3.08;1.70;;;;;;;14.34;nan;98293.38;4992313;28;20551;-61
2022/05/25 05:05:53;;;;;;;2.75;1.70;;;;;;;14.31;nan;98294.31;4991169;28;20423;-61
2022/05/25 05:08:19;;;;;;;4.93;1.42;;;;;;;14.44;nan;98303.28;4997248;28;20168;-62
2022/05/25 05:10:45;;;;;;;2.10;1.33;;;;;;;14.59;nan;98305.25;4997558;28;20423;-61
2022/05/25 05:13:11;;;;;;;1.65;1.52;;;;;;;14.57;nan;98290.72;4992068;28;20031;-61
2022/05/25 05:15:42;;;;;;;1.30;1.30;;;;;;;14.66;nan;98300.69;4991475;28;20021;-62
2022/05/25 05:18:08;;;;;;;6.03;1.83;;;;;;;14.69;nan;98304.88;4997803;28;20095;-61
2022/05/25 05:20:34;;;;;;;1.63;1.50;;;;;;;14.72;nan;98312.50;4996710;28;20041;-61
2022/05/25 05:23:00;;;;;;;2.00;1.80;;;;;;;14.82;nan;98306.03;4990928;28;20034;-61
2022/05/25 05:25:26;;;;;;;2.67;1.50;;;;;;;14.87;nan;98304.13;4991523;28;20583;-61
2022/05/25 05:27:52;;;;;;;1.60;1.50;;;;;;;14.99;nan;98306.19;4998092;28;20058;-61
2022/05/25 05:30:22;;;;;;;1.50;1.20;;;;;;;15.17;nan;98331.25;4993804;28;20042;-61
2022/05/25 05:32:48;;;;;;;1.55;1.52;;;;;;;15.23;nan;98318.09;4990421;28;20385;-62
2022/05/25 05:35:14;;;;;;;1.60;1.50;;;;;;;15.33;nan;98321.09;4992702;28;20089;-61
2022/05/25 05:37:52;;;;;;;1.30;1.30;;;;;;;15.65;nan;98330.06;4997235;28;20133;-61
2022/05/25 05:40:19;;;;;;;1.10;1.10;;;;;;;15.91;nan;98337.50;4994649;28;20542;-61
2022/05/25 05:42:47;;;;;;;3.05;1.42;;;;;;;15.91;nan;98322.00;4989913;28;20820;-61
2022/05/25 05:45:20;;;;;;;1.20;1.20;;;;;;;16.06;nan;98349.72;4993263;28;20038;-61
2022/05/25 05:48:34;;;;;;;0.85;0.85;;;;;;;16.00;nan;98350.84;5003727;28;20026;-62
2022/05/25 05:51:01;;;;;;;1.23;1.23;;;;;;;15.87;nan;98347.13;4986107;28;20049;-62
2022/05/25 05:53:27;;;;;;;1.33;1.33;;;;;;;15.95;nan;98346.81;4991576;28;20038;-62
2022/05/25 05:55:54;;;;;;;1.33;1.10;;;;;;;15.88;nan;98353.13;4996449;28;20026;-62
2022/05/25 05:58:19;;;;;;;1.30;1.30;;;;;;;16.12;nan;98361.56;4995928;28;20037;-61
2022/05/25 06:00:45;;;;;;;1.75;1.33;;;;;;;16.20;nan;98352.53;4990055;28;20104;-61
2022/05/25 06:03:12;;;;;;;2.72;1.38;;;;;;;16.51;nan;98370.03;4990865;28;20038;-61
2022/05/25 06:05:37;;;;;;;1.50;1.40;;;;;;;16.39;nan;98360.25;4996069;28;20031;-63
2022/05/25 06:08:12;;;;;;;1.25;1.13;;;;;;;16.48;nan;98369.34;4993967;28;20503;-61
2022/05/25 06:10:39;;;;;;;1.45;1.45;;;;;;;16.53;nan;98372.56;4989328;28;20038;-61
2022/05/25 06:13:07;;;;;;;1.58;1.48;;;;;;;16.75;nan;98368.94;4994397;28;20034;-61
2022/05/25 06:21:01;;;;;;;1.70;1.60;;;;;;;17.24;nan;98376.88;4990088;28;20158;-61
2022/05/25 06:23:26;;;;;;;1.48;1.48;;;;;;;17.46;nan;98374.88;4996670;28;20436;-60
2022/05/25 06:25:52;;;;;;;2.25;1.92;;;;;;;17.24;nan;98380.31;4995791;28;20396;-61
2022/05/25 06:28:17;;;;;;;1.38;1.38;;;;;;;17.41;nan;98368.25;4990543;28;20085;-62
2022/05/25 06:30:43;;;;;;;1.33;1.33;;;;;;;17.83;nan;98385.97;4990481;28;20117;-62
2022/05/25 06:33:08;;;;;;;1.88;1.80;;;;;;;17.60;nan;98385.44;4996243;28;20026;-63
2022/05/25 06:35:34;;;;;;;1.52;1.52;;;;;;;17.42;nan;98365.59;4996524;28;20034;-64
2022/05/25 06:38:00;;;;;;;2.28;1.27;;;;;;;17.50;nan;98396.28;4992990;28;20041;-62
2022/05/25 06:40:26;;;;;;;1.63;1.52;;;;;;;17.68;nan;98383.28;4993941;28;20397;-62
2022/05/25 06:42:51;;;;;;;1.17;1.17;;;;;;;17.90;nan;98387.34;4999580;28;20035;-62
2022/05/25 06:45:17;;;;;;;1.52;1.48;;;;;;;17.92;nan;98388.09;4996651;28;20037;-63
2022/05/25 06:47:43;;;;;;;1.13;1.13;;;;;;;17.81;nan;98370.50;4991541;28;20429;-62
2022/05/25 06:50:09;;;;;;;2.60;1.20;;;;;;;17.77;nan;98379.38;4995734;28;20116;-65
2022/05/25 06:52:34;;;;;;;1.20;1.20;;;;;;;18.09;nan;98385.44;4995133;28;20042;-62
2022/05/25 06:55:00;;;;;;;1.88;1.77;;;;;;;18.25;nan;98381.94;4992343;28;20038;-62
2022/05/25 06:57:26;;;;;;;1.25;1.25;;;;;;;18.50;nan;98380.63;4997052;28;20033;-63
2022/05/25 06:59:52;;;;;;;1.80;1.70;;;;;;;18.16;nan;98387.63;4992829;28;20501;-62
2022/05/25 07:02:18;;;;;;;1.33;1.30;;;;;;;18.00;nan;98372.97;4993823;28;20436;-62
2022/05/25 07:04:43;;;;;;;1.42;1.33;;;;;;;18.19;nan;98382.28;4992473;28;20030;-63
2022/05/25 07:07:08;;;;;;;1.70;1.38;;;;;;;18.10;nan;98376.75;4989802;28;20548;-63
2022/05/25 07:09:38;;;;;;;1.15;1.15;;;;;;;18.33;nan;98375.53;4992616;28;20129;-62
2022/05/25 07:12:04;;;;;;;1.10;1.10;;;;;;;18.18;nan;98366.78;4995979;28;20061;-62
2022/05/25 07:14:29;;;;;;;3.45;1.10;;;;;;;18.13;nan;98367.03;4992439;28;20038;-61
2022/05/25 07:16:55;;;;;;;1.30;1.20;;;;;;;17.97;nan;98365.34;4994778;28;20158;-61
2022/05/25 07:19:21;;;;;;;1.33;1.20;;;;;;;17.97;nan;98373.97;4994306;28;20105;-61
2022/05/25 07:21:48;;;;;;;1.50;1.40;;;;;;;17.87;nan;98372.78;4995497;28;20064;-62
2022/05/25 07:24:14;;;;;;;1.33;1.23;;;;;;;18.18;nan;98372.00;4990111;28;20038;-62
2022/05/25 07:26:39;;;;;;;1.38;1.38;;;;;;;18.38;nan;98371.75;4987219;28;20208;-62
2022/05/25 07:29:04;;;;;;;1.08;1.08;;;;;;;18.34;nan;98375.41;4993802;28;20530;-62
2022/05/25 07:31:47;;;;;;;1.20;1.20;;;;;;;18.25;nan;98384.53;4994756;28;20622;-61
2022/05/25 07:34:22;;;;;;;1.10;1.10;;;;;;;18.33;nan;98384.13;4987957;28;20065;-61
2022/05/25 07:36:56;;;;;;;0.90;0.90;;;;;;;18.38;nan;98389.06;4989063;28;20189;-61
2022/05/25 07:39:27;;;;;;;5.23;1.17;;;;;;;18.58;nan;98381.94;4993617;28;20382;-61
2022/05/25 07:41:56;;;;;;;1.00;1.00;;;;;;;18.51;nan;98387.47;4994101;28;20448;-61
2022/05/25 07:44:29;;;;;;;1.30;1.30;;;;;;;18.77;nan;98394.72;4987998;28;20568;-61
2022/05/25 07:46:55;;;;;;;1.02;1.02;;;;;;;18.69;nan;98386.50;4992410;28;20029;-61
2022/05/25 07:49:23;;;;;;;1.35;1.25;;;;;;;19.03;nan;98386.28;4994788;28;20038;-62
2022/05/25 07:51:49;;;;;;;1.05;1.05;;;;;;;18.79;nan;98395.47;4992703;28;20038;-61
2022/05/25 07:54:14;;;;;;;1.40;1.33;;;;;;;18.50;nan;98383.22;4990591;28;20049;-62
2022/05/25 07:56:40;;;;;;;1.23;1.15;;;;;;;18.40;nan;98389.84;4998689;28;20038;-61
2022/05/25 07:59:09;;;;;;;1.08;1.08;;;;;;;18.45;nan;98377.44;4997997;28;20479;-61
2022/05/25 08:07:21;;;;;;;1.25;1.25;;;;;;;19.26;nan;98389.34;5000290;28;20546;-63
2022/05/25 08:09:47;;;;;;;1.08;1.08;;;;;;;19.33;nan;98399.28;4996493;28;20573;-63
2022/05/25 08:12:13;;;;;;;1.23;1.23;;;;;;;19.35;nan;98394.00;4993445;28;20057;-63
2022/05/25 08:14:39;;;;;;;1.20;1.08;;;;;;;19.07;nan;98398.19;4994383;28;20089;-63
2022/05/25 08:17:07;;;;;;;1.30;1.20;;;;;;;19.37;nan;98397.34;4999326;28;20038;-63
2022/05/25 08:19:33;;;;;;;1.30;1.23;;;;;;;19.37;nan;98402.53;4995114;28;20042;-63
2022/05/25 08:21:58;;;;;;;1.30;1.30;;;;;;;19.46;nan;98383.84;4991800;28;20033;-62
2022/05/25 08:24:24;;;;;;;2.40;0.90;;;;;;;19.30;nan;98406.44;4995981;28;20088;-62
2022/05/25 08:26:49;;;;;;;1.00;1.00;;;;;;;19.35;nan;98394.00;4996440;28;20046;-62
2022/05/25 08:29:15;;;;;;;0.93;0.93;;;;;;;19.67;nan;98402.53;4994298;28;20461;-62
2022/05/25 08:31:42;;;;;;;1.20;1.10;;;;;;;20.10;nan;98399.03;4992129;28;20026;-62
2022/05/25 08:34:08;;;;;;;1.48;1.40;;;;;;;20.03;nan;98392.50;4994897;28;20037;-62
2022/05/25 08:36:33;;;;;;;1.15;1.15;;;;;;;20.39;nan;98392.03;5000169;28;20484;-62
2022/05/25 08:39:00;;;;;;;1.00;1.00;;;;;;;20.12;nan;98391.09;4992306;28;20464;-62
2022/05/25 08:41:40;;;;;;;1.05;1.05;;;;;;;19.94;nan;98403.50;4992715;28;20034;-64
2022/05/25 08:44:07;;;;;;;1.73;1.00;;;;;;;19.91;nan;98394.09;4990897;28;20042;-63
2022/05/25 08:46:33;;;;;;;1.38;1.00;;;;;;;20.13;nan;98390.19;4998359;28;20034;-63
2022/05/25 08:49:02;;;;;;;1.15;1.15;;;;;;;20.32;nan;98391.59;4992063;28;20100;-63
2022/05/25 08:51:28;;;;;;;1.13;1.13;;;;;;;20.52;nan;98398.16;4993186;28;20073;-63
2022/05/25 08:53:58;;;;;;;1.58;1.48;;;;;;;20.95;nan;98407.53;4998283;28;20038;-61
2022/05/25 08:56:38;;;;;;;1.20;1.20;;;;;;;21.01;nan;98403.66;4997950;28;20034;-63
2022/05/25 08:59:32;;;;;;;1.00;1.00;;;;;;;20.79;nan;98409.44;4990160;28;20074;-63
2022/05/25 09:02:18;;;;;;;1.20;1.20;;;;;;;20.63;nan;98413.94;4988725;28;20105;-63
2022/05/25 09:04:46;;;;;;;1.17;1.08;;;;;;;20.51;nan;98422.53;4997789;28;20233;-64
2022/05/25 09:07:18;;;;;;;1.42;1.33;;;;;;;20.67;nan;98420.63;4993836;28;20177;-63
2022/05/25 09:09:46;;;;;;;1.23;1.23;;;;;;;20.59;nan;98412.47;4990113;28;20056;-64
2022/05/25 09:12:15;;;;;;;1.10;1.10;;;;;;;20.78;nan;98413.00;4996716;28;20496;-61
2022/05/25 09:14:56;;;;;;;1.00;1.00;;;;;;;21.07;nan;98412.88;4998109;28;20030;-62
2022/05/25 09:17:48;;;;;;;1.17;1.17;;;;;;;21.04;nan;98411.31;4990620;28;20061;-62
2022/05/25 09:20:19;;;;;;;1.27;1.20;;;;;;;21.26;nan;98405.56;4994486;28;20125;-62
2022/05/25 09:22:45;;;;;;;1.17;1.17;;;;;;;21.30;nan;98405.25;4995750;28;20038;-62
2022/05/25 09:25:15;;;;;;;1.00;1.00;;;;;;;21.03;nan;98409.63;4995367;28;20066;-62
2022/05/25 09:28:03;;;;;;;2.38;1.00;;;;;;;20.92;nan;98418.13;5003793;28;20581;-62
2022/05/25 09:30:31;;;;;;;1.35;1.10;;;;;;;20.93;nan;98413.75;4994697;28;20116;-62
2022/05/25 09:33:04;;;;;;;1.10;1.10;;;;;;;20.94;nan;98418.88;4996136;28;20072;-62
2022/05/25 09:35:35;;;;;;;1.40;1.30;;;;;;;20.90;nan;98406.97;4991905;28;20030;-62
2022/05/25 09:38:27;;;;;;;1.00;1.00;;;;;;;20.77;nan;98424.34;4991855;28;20123;-62
2022/05/25 09:40:53;;;;;;;1.55;1.13;;;;;;;20.96;nan;98417.00;4997258;28;20456;-62
2022/05/25 09:43:21;;;;;;;1.45;1.40;;;;;;;21.03;nan;98427.03;4996714;28;20029;-62
2022/05/25 09:45:48;;;;;;;1.13;1.13;;;;;;;21.09;nan;98431.88;4990504;28;20102;-61
2022/05/25 09:48:30;;;;;;;1.40;1.30;;;;;;;21.41;nan;98428.84;4993073;28;20372;-63
2022/05/25 09:51:03;;;;;;;1.00;1.00;;;;;;;21.23;nan;98431.81;4997115;28;20480;-63
2022/05/25 09:53:39;;;;;;;1.10;1.10;;;;;;;21.35;nan;98444.06;4994408;28;20490;-64
2022/05/25 09:56:26;;;;;;;1.95;1.40;;;;;;;20.84;nan;98451.66;4992146;28;20041;-63
2022/05/25 09:58:55;;;;;;;1.20;1.20;;;;;;;20.77;nan;98439.97;4994244;28;20034;-64
2022/05/25 10:01:31;;;;;;;1.80;1.15;;;;;;;21.10;nan;98451.78;4996460;28;20031;-62
2022/05/25 10:03:59;;;;;;;1.10;1.10;;;;;;;21.16;nan;98444.44;4989965;28;20484;-61
2022/05/25 10:06:34;;;;;;;1.58;1.55;;;;;;;21.31;nan;98440.81;4991589;28;20038;-62
2022/05/25 10:09:20;;;;;;;1.50;1.40;;;;;;;20.77;nan;98447.78;4996211;28;20487;-62
2022/05/25 10:11:50;;;;;;;2.38;1.30;;;;;;;20.95;nan;98446.63;4994004;28;20066;-62
2022/05/25 10:14:35;;;;;;;1.40;1.40;;;;;;;21.10;nan;98450.00;4990712;28;20042;-62
2022/05/25 10:17:12;;;;;;;1.50;1.40;;;;;;;21.03;nan;98437.47;4993772;28;20061;-61
2022/05/25 10:19:49;;;;;;;1.13;1.13;;;;;;;21.25;nan;98441.25;4996327;28;20038;-61
2022/05/25 10:22:28;;;;;;;1.67;1.30;;;;;;;21.20;nan;98451.13;4993938;28;20034;-62
2022/05/25 10:25:19;;;;;;;1.58;1.48;;;;;;;21.22;nan;98444.03;4990621;28;20041;-62
2022/05/25 10:27:45;;;;;;;1.67;1.58;;;;;;;21.36;nan;98449.19;4995595;28;20057;-63
2022/05/25 10:36:53;;;;;;;2.08;1.30;;;;;;;20.88;nan;98441.88;4958397;28;20082;-62
2022/05/25 10:39:28;;;;;;;1.45;1.45;;;;;;;20.94;nan;98457.97;4958845;28;20660;-62
2022/05/25 10:42:06;;;;;;;3.25;1.55;;;;;;;20.97;nan;98454.31;4951651;28;20074;-62
2022/05/25 10:44:40;;;;;;;1.52;1.52;;;;;;;20.87;nan;98450.66;4954957;28;20067;-62
2022/05/25 10:47:27;;;;;;;2.13;2.03;;;;;;;21.00;nan;98450.72;4957640;28;20468;-62
2022/05/25 10:49:53;;;;;;;1.70;1.60;;;;;;;20.94;nan;98447.56;4957307;28;20038;-62
2022/05/25 10:52:25;;;;;;;1.70;1.60;;;;;;;20.80;nan;98449.34;4956643;28;20243;-62
2022/05/25 10:54:52;;;;;;;1.80;1.63;;;;;;;20.71;nan;98450.75;4960369;28;20068;-60
2022/05/25 10:57:45;;;;;;;1.98;1.65;;;;;;;20.89;nan;98462.66;4962286;28;20098;-65
2022/05/25 11:00:30;;;;;;;1.85;1.75;;;;;;;20.36;nan;98452.97;4949105;28;20148;-61
2022/05/25 11:03:10;;;;;;;2.10;1.58;;;;;;;20.27;nan;98471.72;4957225;28;20042;-61
2022/05/25 11:05:57;;;;;;;1.83;1.73;;;;;;;20.03;nan;98465.38;4959687;28;20110;-59
2022/05/25 11:08:55;;;;;;;1.88;1.40;;;;;;;19.84;nan;98478.66;4990005;28;20069;-59
2022/05/25 11:11:33;;;;;;;1.70;1.60;;;;;;;19.64;nan;98488.56;4988517;28;20416;-56
2022/05/25 11:14:02;;;;;;;2.03;1.85;;;;;;;19.48;nan;98493.78;4994405;28;20468;-59
2022/05/25 11:16:58;;;;;;;2.13;2.03;;;;;;;19.36;nan;98489.25;4990233;28;20038;-61
2022/05/25 11:19:47;;;;;;;1.80;1.70;;;;;;;19.44;nan;98492.28;4993319;28;20035;-58
2022/05/25 11:22:38;;;;;;;3.20;1.75;;;;;;;19.34;nan;98493.72;4994963;28;20204;-58
2022/05/25 11:25:30;;;;;;;2.15;1.77;;;;;;;19.32;nan;98490.34;4989515;28;20149;-60
2022/05/25 11:28:27;;;;;;;2.13;2.03;;;;;;;19.11;nan;98503.63;4990428;28;20062;-59
2022/05/25 11:31:01;;;;;;;2.47;2.38;;;;;;;18.86;nan;98495.50;4999316;28;20044;-59
2022/05/25 11:33:45;;;;;;;2.17;2.08;;;;;;;18.85;nan;98513.78;4993232;28;20026;-60
2022/05/25 11:36:26;;;;;;;2.00;1.90;;;;;;;18.79;nan;98529.69;4995489;28;20059;-60
2022/05/25 11:39:17;;;;;;;2.00;1.90;;;;;;;18.54;nan;98525.78;4998801;28;20523;-60
2022/05/25 11:41:53;;;;;;;2.05;1.95;;;;;;;18.49;nan;98521.75;4988822;28;20044;-61
2022/05/25 11:44:30;;;;;;;1.60;1.50;;;;;;;18.46;nan;98534.91;4992068;28;20749;-59
2022/05/25 11:47:19;;;;;;;1.80;1.70;;;;;;;18.27;nan;98537.59;4997037;28;20572;-59
2022/05/25 11:49:58;;;;;;;2.47;2.35;;;;;;;18.36;nan;98518.13;4969484;28;20057;-60
2022/05/25 11:52:42;;;;;;;1.85;1.60;;;;;;;18.11;nan;98532.38;4992829;28;20061;-59
2022/05/25 11:55:22;;;;;;;1.88;1.75;;;;;;;17.85;nan;98530.25;4991807;28;20034;-59
2022/05/25 11:58:02;;;;;;;1.73;1.63;;;;;;;17.78;nan;98542.66;4998314;28;20088;-59
2022/05/25 12:00:40;;;;;;;1.55;1.45;;;;;;;17.51;nan;98537.97;4996001;28;20030;-58
2022/05/25 12:03:20;;;;;;;2.20;2.10;;;;;;;17.40;nan;98551.41;4992135;28;20085;-58
2022/05/25 12:06:14;;;;;;;2.20;2.10;;;;;;;17.31;nan;98551.88;5011313;28;20029;-55
2022/05/25 12:08:43;;;;;;;2.10;1.95;;;;;;;17.34;nan;98560.34;4998232;28;20042;-59
2022/05/25 12:11:11;;;;;;;3.80;2.67;;;;;;;17.28;nan;98560.63;5006622;28;20034;-60
2022/05/25 12:13:49;;;;;;;2.85;2.75;;;;;;;17.18;nan;98554.22;4992535;28;20356;-61
2022/05/25 12:16:21;;;;;;;2.78;2.58;;;;;;;16.82;nan;98550.72;4997613;28;20073;-61
2022/05/25 12:18:50;;;;;;;3.00;2.70;;;;;;;16.84;nan;98559.25;4997406;28;20427;-60
2022/05/25 12:21:21;;;;;;;3.20;2.70;;;;;;;16.83;nan;98562.75;4990106;28;20973;-61
2022/05/25 12:23:51;;;;;;;3.53;3.33;;;;;;;16.62;nan;98549.03;4992240;28;20886;-61
2022/05/25 12:26:25;;;;;;;4.13;3.83;;;;;;;16.65;nan;98587.72;4998728;28;20058;-61
2022/05/25 12:28:53;;;;;;;3.88;3.58;;;;;;;16.32;nan;98581.38;4993346;28;20105;-61
2022/05/25 12:31:22;;;;;;;4.18;3.78;;;;;;;16.34;nan;98598.50;4989672;28;20070;-61
2022/05/25 12:33:49;;;;;;;4.15;3.75;;;;;;;16.29;nan;98599.63;4992587;28;20037;-61
2022/05/25 12:36:16;;;;;;;3.72;3.42;;;;;;;16.27;nan;98612.63;5009233;28;20053;-61
2022/05/25 12:38:42;;;;;;;3.60;3.38;;;;;;;16.15;nan;98596.78;4990884;28;20057;-61